Time;durP1;ratioP1;P1;durP2;ratioP2;P2;SDS_P1;SDS_P2;PMS_P1;PMS_P2;Temp;Humidity;BMP_temperature;BMP_pressure;BME280_temperature;BME280_humidity;BME280_pressure;Samples;Min_cycle;Max_cycle;Signal;HPM_P1;HPM_P2
2023/10/30 00:01:05;;;;;;;9.32;1.75;;;9.60;99.90;;;;;;5017533;28;20049;-71
2023/10/30 00:03:31;;;;;;;7.05;1.98;;;9.60;99.90;;;;;;5033938;28;20039;-72
2023/10/30 00:05:56;;;;;;;9.43;2.00;;;9.60;99.90;;;;;;5034217;28;20374;-72
2023/10/30 00:08:22;;;;;;;7.78;1.73;;;9.60;99.90;;;;;;5034087;28;20041;-72
2023/10/30 00:10:48;;;;;;;7.43;1.63;;;9.60;99.90;;;;;;5033786;28;20045;-72
2023/10/30 00:13:14;;;;;;;9.15;1.90;;;9.50;99.90;;;;;;5033571;28;20057;-72
2023/10/30 00:15:39;;;;;;;8.50;1.60;;;9.50;99.90;;;;;;5033962;28;20049;-72
2023/10/30 00:18:05;;;;;;;7.68;1.90;;;9.50;99.90;;;;;;5033559;28;20048;-71
2023/10/30 00:20:31;;;;;;;10.05;1.95;;;9.50;99.90;;;;;;5033605;28;20124;-72
2023/10/30 00:22:57;;;;;;;6.70;1.88;;;9.50;99.90;;;;;;5033516;28;20056;-71
2023/10/30 00:25:22;;;;;;;7.93;1.80;;;9.50;99.90;;;;;;5033666;28;20127;-71
2023/10/30 00:27:48;;;;;;;7.82;2.00;;;9.50;99.90;;;;;;5033442;28;20048;-71
2023/10/30 00:30:14;;;;;;;7.82;1.80;;;9.50;99.90;;;;;;5016876;28;20068;-71
2023/10/30 00:32:40;;;;;;;6.97;1.75;;;9.40;99.90;;;;;;5033171;28;20060;-71
2023/10/30 00:35:06;;;;;;;8.43;1.90;;;9.40;99.90;;;;;;5033330;28;20456;-71
2023/10/30 00:37:32;;;;;;;8.27;1.83;;;9.40;99.90;;;;;;5033637;28;20037;-71
2023/10/30 00:39:57;;;;;;;7.63;1.80;;;9.40;99.90;;;;;;5033488;28;20045;-71
2023/10/30 00:42:26;;;;;;;8.02;1.80;;;9.30;99.90;;;;;;5032547;28;20095;-72
2023/10/30 00:44:51;;;;;;;7.45;1.70;;;9.30;99.90;;;;;;5033445;28;20045;-71
2023/10/30 00:47:17;;;;;;;7.57;1.80;;;9.30;99.90;;;;;;5033090;28;20087;-71
2023/10/30 00:49:43;;;;;;;9.05;1.92;;;9.40;99.90;;;;;;5033267;28;20092;-72
2023/10/30 00:52:08;;;;;;;6.93;1.70;;;9.40;99.90;;;;;;5033148;28;20049;-72
2023/10/30 00:54:34;;;;;;;7.35;1.95;;;9.40;99.90;;;;;;5032924;28;20041;-71
2023/10/30 00:57:00;;;;;;;9.75;1.70;;;9.40;99.90;;;;;;5032848;28;20041;-71
2023/10/30 00:59:26;;;;;;;7.63;1.92;;;9.40;99.90;;;;;;5032775;28;20107;-71
2023/10/30 01:01:52;;;;;;;6.93;1.95;;;9.40;99.90;;;;;;5032867;28;20044;-72
2023/10/30 01:04:18;;;;;;;8.93;2.00;;;9.40;99.90;;;;;;5032809;28;20045;-71
2023/10/30 01:06:44;;;;;;;6.40;1.80;;;9.40;99.90;;;;;;5032971;28;20084;-71
2023/10/30 01:09:11;;;;;;;9.27;2.00;;;9.40;99.90;;;;;;5016370;28;20048;-71
2023/10/30 01:11:37;;;;;;;8.52;1.90;;;9.50;99.90;;;;;;5032409;28;20116;-71
2023/10/30 01:14:03;;;;;;;9.75;2.20;;;9.50;99.90;;;;;;5016229;28;20046;-71
2023/10/30 01:16:29;;;;;;;8.88;2.08;;;9.50;99.90;;;;;;5016287;28;20041;-71
2023/10/30 01:18:54;;;;;;;10.13;2.22;;;9.40;99.90;;;;;;5032498;28;20074;-71
2023/10/30 01:21:20;;;;;;;7.35;2.00;;;9.40;99.90;;;;;;5032413;28;20041;-71
2023/10/30 01:23:46;;;;;;;7.45;2.10;;;9.40;99.90;;;;;;5032684;28;20045;-71
2023/10/30 01:26:12;;;;;;;8.30;2.00;;;9.40;99.90;;;;;;5032524;28;20077;-71
2023/10/30 01:28:38;;;;;;;8.27;2.00;;;9.40;99.90;;;;;;5032728;28;20045;-71
2023/10/30 01:31:04;;;;;;;8.52;2.17;;;9.40;99.90;;;;;;5032613;28;20548;-71
2023/10/30 01:33:31;;;;;;;8.20;2.00;;;9.40;99.90;;;;;;5032112;28;20049;-71
2023/10/30 01:35:56;;;;;;;8.25;2.17;;;9.40;99.90;;;;;;5032222;28;20044;-71
2023/10/30 01:38:22;;;;;;;7.63;1.98;;;9.40;99.90;;;;;;5032346;28;20394;-71
2023/10/30 01:40:49;;;;;;;11.43;2.05;;;9.40;99.90;;;;;;5032124;28;20037;-71
2023/10/30 01:43:15;;;;;;;9.27;2.10;;;9.40;99.90;;;;;;5032154;28;20045;-72
2023/10/30 01:45:41;;;;;;;10.63;2.08;;;9.40;99.90;;;;;;5031969;28;20464;-71
2023/10/30 01:48:07;;;;;;;10.25;2.20;;;9.40;99.90;;;;;;5032112;28;20045;-71
2023/10/30 01:50:35;;;;;;;8.85;2.10;;;9.40;99.90;;;;;;5032297;28;20049;-71
2023/10/30 01:53:03;;;;;;;10.98;2.28;;;9.40;99.90;;;;;;5031854;28;20045;-71
2023/10/30 01:55:29;;;;;;;8.50;2.20;;;9.40;99.90;;;;;;5032300;28;20041;-71
2023/10/30 01:57:55;;;;;;;10.80;2.30;;;9.40;99.90;;;;;;5032048;28;20124;-68
2023/10/30 02:00:22;;;;;;;9.15;2.30;;;9.40;99.90;;;;;;5015459;28;20096;-67
2023/10/30 02:02:50;;;;;;;10.32;2.33;;;9.40;99.90;;;;;;5031868;28;20045;-67
2023/10/30 02:05:16;;;;;;;11.65;2.20;;;9.40;99.90;;;;;;5015382;28;20068;-68
2023/10/30 02:07:42;;;;;;;10.32;2.50;;;9.40;99.90;;;;;;5031819;28;20042;-68
2023/10/30 02:10:08;;;;;;;10.82;2.20;;;9.40;99.90;;;;;;5015413;28;20041;-67
2023/10/30 02:12:37;;;;;;;11.13;2.28;;;9.40;99.90;;;;;;5031741;28;20049;-67
2023/10/30 02:15:03;;;;;;;9.57;2.05;;;9.40;99.90;;;;;;5031675;28;20046;-67
2023/10/30 02:17:29;;;;;;;9.35;2.28;;;9.40;99.90;;;;;;5031758;28;20038;-67
2023/10/30 02:19:54;;;;;;;11.18;2.50;;;9.40;99.90;;;;;;5031627;28;20406;-67
2023/10/30 02:22:20;;;;;;;9.73;2.30;;;9.40;99.90;;;;;;5031669;28;20050;-67
2023/10/30 02:24:46;;;;;;;9.90;2.58;;;9.40;99.90;;;;;;5031923;28;20132;-67
2023/10/30 02:27:11;;;;;;;11.10;2.40;;;9.40;99.90;;;;;;5015200;28;20056;-67
2023/10/30 02:29:37;;;;;;;12.02;2.15;;;9.50;99.90;;;;;;5031872;28;20041;-67
2023/10/30 02:32:03;;;;;;;11.63;2.35;;;9.50;99.90;;;;;;5031414;28;20052;-67
2023/10/30 02:34:29;;;;;;;13.23;2.33;;;9.50;99.90;;;;;;5031586;28;20042;-67
2023/10/30 02:36:56;;;;;;;12.75;2.47;;;9.60;99.90;;;;;;5031827;28;20041;-67
2023/10/30 02:39:22;;;;;;;11.45;2.35;;;9.60;99.90;;;;;;5031661;28;20052;-67
2023/10/30 02:41:48;;;;;;;10.93;2.38;;;9.60;99.90;;;;;;5031428;28;20041;-67
2023/10/30 02:44:14;;;;;;;11.02;2.42;;;9.60;99.90;;;;;;5031742;28;20045;-67
2023/10/30 02:46:39;;;;;;;12.43;2.40;;;9.70;99.90;;;;;;5031676;28;20037;-68
2023/10/30 02:49:05;;;;;;;12.40;2.28;;;9.70;99.90;;;;;;5031488;28;20069;-67
2023/10/30 02:51:31;;;;;;;13.55;2.63;;;9.70;99.90;;;;;;5031432;28;20144;-67
2023/10/30 02:53:57;;;;;;;13.38;2.60;;;9.80;99.90;;;;;;5031349;28;20156;-67
2023/10/30 02:56:23;;;;;;;13.20;2.47;;;9.80;99.90;;;;;;5014880;28;20087;-67
2023/10/30 02:58:48;;;;;;;12.35;2.58;;;9.80;99.90;;;;;;5031771;28;20033;-67
2023/10/30 03:01:14;;;;;;;12.02;2.45;;;9.80;99.90;;;;;;5014839;28;20041;-67
2023/10/30 03:03:40;;;;;;;15.52;2.85;;;9.80;99.90;;;;;;5031290;28;20485;-67
2023/10/30 03:06:05;;;;;;;13.23;2.50;;;9.80;99.90;;;;;;5016840;28;20049;-67
2023/10/30 03:08:31;;;;;;;10.82;2.33;;;9.80;99.90;;;;;;5035055;28;20045;-71
2023/10/30 03:10:57;;;;;;;12.48;2.40;;;9.90;99.90;;;;;;5035278;28;20505;-71
2023/10/30 03:13:23;;;;;;;13.18;2.70;;;9.80;99.90;;;;;;5018186;28;20050;-71
2023/10/30 03:15:49;;;;;;;12.40;2.45;;;9.90;99.90;;;;;;5034801;28;20045;-71
2023/10/30 03:18:14;;;;;;;11.38;2.55;;;9.90;99.90;;;;;;5034735;28;20045;-72
2023/10/30 03:20:40;;;;;;;13.35;2.60;;;9.90;99.90;;;;;;5035012;28;20049;-71
2023/10/30 03:23:06;;;;;;;13.50;2.33;;;9.90;99.90;;;;;;5034669;28;20072;-71
2023/10/30 03:25:31;;;;;;;11.88;2.55;;;9.90;99.90;;;;;;5034635;28;20073;-71
2023/10/30 03:27:57;;;;;;;12.82;2.60;;;9.90;99.90;;;;;;5018151;28;20041;-72
2023/10/30 03:30:23;;;;;;;13.15;2.40;;;9.90;99.90;;;;;;5034541;28;20448;-71
2023/10/30 03:32:48;;;;;;;12.82;2.60;;;10.00;99.90;;;;;;5034685;28;20042;-71
2023/10/30 03:35:14;;;;;;;13.43;2.78;;;10.00;99.90;;;;;;5034512;28;20041;-71
2023/10/30 03:37:40;;;;;;;9.68;2.08;;;10.00;99.90;;;;;;5034306;28;20037;-71
2023/10/30 03:40:06;;;;;;;9.85;2.50;;;10.00;99.90;;;;;;5034644;28;20052;-71
2023/10/30 03:42:32;;;;;;;11.07;2.35;;;9.90;99.90;;;;;;5034683;28;20473;-71
2023/10/30 03:44:57;;;;;;;13.60;2.63;;;10.00;99.90;;;;;;5034583;28;20038;-71
2023/10/30 03:47:23;;;;;;;12.35;2.30;;;9.90;99.90;;;;;;5034172;28;20049;-71
2023/10/30 03:49:49;;;;;;;12.15;2.42;;;9.90;99.90;;;;;;5034673;28;20037;-72
2023/10/30 03:52:14;;;;;;;10.30;2.40;;;9.90;99.90;;;;;;5034019;28;20041;-71
2023/10/30 03:54:40;;;;;;;10.60;2.45;;;9.90;99.90;;;;;;5034338;28;20494;-71
2023/10/30 03:57:08;;;;;;;12.55;2.38;;;9.90;99.90;;;;;;5034403;28;20041;-71
2023/10/30 03:59:35;;;;;;;12.10;2.10;;;9.90;99.90;;;;;;5034276;28;20037;-71
2023/10/30 04:02:01;;;;;;;11.52;2.70;;;9.90;99.90;;;;;;5034173;28;20048;-71
2023/10/30 04:04:27;;;;;;;12.45;2.40;;;9.80;99.90;;;;;;5034041;28;20041;-71
2023/10/30 04:06:53;;;;;;;13.98;2.42;;;9.90;99.90;;;;;;5033838;28;20490;-71
2023/10/30 04:09:19;;;;;;;12.32;2.40;;;9.90;99.90;;;;;;5034278;28;20418;-71
2023/10/30 04:11:48;;;;;;;10.93;2.35;;;9.80;99.90;;;;;;5033773;28;20119;-72
2023/10/30 04:14:14;;;;;;;11.02;2.60;;;9.80;99.90;;;;;;5034473;28;20049;-71
2023/10/30 04:16:40;;;;;;;13.43;2.60;;;9.80;99.90;;;;;;5033902;28;20099;-71
2023/10/30 04:19:06;;;;;;;12.23;2.58;;;9.80;99.90;;;;;;5033737;28;20063;-67
2023/10/30 04:21:32;;;;;;;13.20;2.60;;;9.80;99.90;;;;;;5033525;28;20045;-67
2023/10/30 04:23:58;;;;;;;12.18;2.50;;;9.80;99.90;;;;;;5017048;28;20045;-68
2023/10/30 04:26:23;;;;;;;14.77;2.72;;;9.80;99.90;;;;;;5033576;28;20111;-68
2023/10/30 04:28:49;;;;;;;14.98;2.50;;;9.80;99.90;;;;;;5033415;28;20080;-68
2023/10/30 04:31:15;;;;;;;14.88;2.65;;;9.80;99.90;;;;;;5033829;28;20052;-68
2023/10/30 04:33:41;;;;;;;12.68;2.35;;;9.80;99.90;;;;;;5034522;28;20064;-67
2023/10/30 04:36:07;;;;;;;11.68;2.63;;;9.80;99.90;;;;;;5033624;28;20393;-68
2023/10/30 04:38:34;;;;;;;13.88;2.53;;;9.80;99.90;;;;;;5033561;28;20045;-68
2023/10/30 04:41:04;;;;;;;12.65;2.40;;;9.80;99.90;;;;;;5033643;28;20064;-68
2023/10/30 04:43:31;;;;;;;14.75;2.65;;;9.70;99.90;;;;;;5034449;28;20128;-67
2023/10/30 04:45:57;;;;;;;15.32;2.63;;;9.70;99.90;;;;;;5034624;28;20037;-67
2023/10/30 04:48:22;;;;;;;12.18;2.47;;;9.70;99.90;;;;;;5016557;28;20048;-67
2023/10/30 04:50:48;;;;;;;12.68;2.35;;;9.70;99.90;;;;;;5033016;28;20452;-68
2023/10/30 04:53:14;;;;;;;13.60;2.50;;;9.70;99.90;;;;;;5032962;28;20033;-67
2023/10/30 04:55:40;;;;;;;11.13;2.45;;;9.60;99.90;;;;;;5032945;28;20102;-68
2023/10/30 04:58:06;;;;;;;12.70;2.88;;;9.60;99.90;;;;;;5033131;28;20104;-67
2023/10/30 05:00:32;;;;;;;13.63;2.45;;;9.60;99.90;;;;;;5032902;28;20119;-68
2023/10/30 05:02:57;;;;;;;14.45;2.90;;;9.50;99.90;;;;;;5032720;28;20041;-67
2023/10/30 05:05:23;;;;;;;14.25;2.50;;;9.50;99.90;;;;;;5032845;28;20037;-68
2023/10/30 05:07:49;;;;;;;14.07;2.75;;;9.50;99.90;;;;;;5032691;28;20038;-68
2023/10/30 05:10:15;;;;;;;15.90;2.65;;;9.50;99.90;;;;;;5032809;28;20064;-68
2023/10/30 05:12:40;;;;;;;14.55;2.53;;;9.40;99.90;;;;;;5032336;28;20060;-67
2023/10/30 05:15:10;;;;;;;12.65;2.72;;;9.40;99.90;;;;;;5032665;28;20045;-67
2023/10/30 05:17:37;;;;;;;13.88;2.50;;;9.40;99.90;;;;;;5032856;28;20072;-67
2023/10/30 05:20:04;;;;;;;12.32;2.47;;;9.40;99.90;;;;;;5032701;28;20045;-67
2023/10/30 05:22:32;;;;;;;13.45;2.50;;;9.40;99.90;;;;;;5049074;28;20041;-67
2023/10/30 05:24:57;;;;;;;14.68;2.67;;;9.40;99.90;;;;;;5049341;28;20095;-67
2023/10/30 05:27:25;;;;;;;14.95;2.33;;;9.40;99.90;;;;;;5016266;28;20037;-67
2023/10/30 05:29:51;;;;;;;13.45;2.50;;;9.40;99.90;;;;;;5016062;28;20070;-71
2023/10/30 05:32:17;;;;;;;15.20;2.80;;;9.40;99.90;;;;;;5032182;28;20045;-72
2023/10/30 05:34:42;;;;;;;14.38;2.60;;;9.40;99.90;;;;;;5032246;28;20124;-71
2023/10/30 05:37:09;;;;;;;13.95;2.53;;;9.40;99.90;;;;;;5015948;28;20459;-71
2023/10/30 05:39:35;;;;;;;12.30;2.40;;;9.40;99.90;;;;;;5032464;28;20049;-71
2023/10/30 05:42:02;;;;;;;12.77;2.63;;;9.40;99.90;;;;;;5032049;28;20037;-71
2023/10/30 05:44:31;;;;;;;12.68;2.67;;;9.40;99.90;;;;;;5032573;28;20120;-71
2023/10/30 05:47:00;;;;;;;15.95;2.95;;;9.50;99.90;;;;;;5032729;28;20389;-71
2023/10/30 05:49:26;;;;;;;11.68;2.33;;;9.50;99.90;;;;;;5032035;28;20068;-71
2023/10/30 05:51:53;;;;;;;13.48;2.47;;;9.50;99.90;;;;;;5031870;28;20037;-71
2023/10/30 05:54:19;;;;;;;14.43;2.70;;;9.50;99.90;;;;;;5031998;28;20038;-71
2023/10/30 05:56:45;;;;;;;12.48;2.60;;;9.50;99.90;;;;;;5031990;28;20041;-71
2023/10/30 05:59:10;;;;;;;12.98;2.50;;;9.50;99.90;;;;;;5016002;28;20548;-71
2023/10/30 06:01:36;;;;;;;15.00;2.92;;;9.50;99.90;;;;;;5015746;28;20034;-71
2023/10/30 06:04:02;;;;;;;13.13;2.70;;;9.50;99.90;;;;;;5032000;28;20133;-71
2023/10/30 06:06:28;;;;;;;14.50;2.42;;;9.50;99.90;;;;;;5031768;28;20057;-72
2023/10/30 06:08:54;;;;;;;14.90;2.72;;;9.40;99.90;;;;;;5031836;28;20055;-71
2023/10/30 06:11:20;;;;;;;13.23;2.50;;;9.50;99.90;;;;;;5015375;28;20049;-71
2023/10/30 06:13:46;;;;;;;13.35;2.65;;;9.50;99.90;;;;;;5031661;28;20239;-71
2023/10/30 06:16:18;;;;;;;15.88;2.72;;;9.50;99.90;;;;;;5031743;28;20104;-71
2023/10/30 06:18:44;;;;;;;16.30;3.00;;;9.50;99.90;;;;;;5031693;28;20037;-71
2023/10/30 06:21:17;;;;;;;16.02;2.97;;;9.50;99.90;;;;;;5031819;28;20045;-71
2023/10/30 06:23:44;;;;;;;13.05;2.58;;;9.60;99.90;;;;;;5031714;28;20112;-71
2023/10/30 06:26:13;;;;;;;17.98;3.00;;;9.60;99.90;;;;;;5031714;28;20041;-71
2023/10/30 06:28:40;;;;;;;12.52;2.45;;;9.60;99.90;;;;;;5031884;28;20117;-71
2023/10/30 06:31:16;;;;;;;17.77;2.60;;;9.70;99.90;;;;;;5031997;28;20052;-71
2023/10/30 06:33:43;;;;;;;14.05;2.38;;;9.70;99.90;;;;;;5031571;28;20045;-71
2023/10/30 06:36:08;;;;;;;13.70;2.80;;;9.70;99.90;;;;;;5031505;28;20121;-71
2023/10/30 06:38:34;;;;;;;12.25;2.75;;;9.70;99.90;;;;;;5015190;28;20121;-71
2023/10/30 06:41:00;;;;;;;13.15;2.28;;;9.70;99.90;;;;;;5033161;28;20037;-72
2023/10/30 06:43:26;;;;;;;14.80;2.58;;;9.80;99.90;;;;;;5035535;28;20049;-72
2023/10/30 06:46:02;;;;;;;15.75;2.47;;;9.80;99.90;;;;;;5035309;28;20125;-71
2023/10/30 06:48:28;;;;;;;16.77;2.70;;;9.80;99.90;;;;;;5035365;28;20046;-71
2023/10/30 06:50:55;;;;;;;12.10;2.20;;;9.90;99.90;;;;;;5035326;28;20064;-72
2023/10/30 06:53:21;;;;;;;11.65;2.72;;;9.90;99.90;;;;;;5035215;28;20045;-71
2023/10/30 06:55:47;;;;;;;10.73;2.50;;;9.90;99.90;;;;;;5035364;28;20048;-72
2023/10/30 06:58:13;;;;;;;14.32;2.45;;;9.90;99.90;;;;;;5035186;28;20463;-71
2023/10/30 07:00:38;;;;;;;14.80;2.33;;;9.90;99.90;;;;;;5036457;28;20068;-71
2023/10/30 07:03:04;;;;;;;11.70;2.65;;;9.90;99.90;;;;;;5018594;28;20099;-72
2023/10/30 07:05:30;;;;;;;11.75;2.53;;;10.00;99.90;;;;;;5035074;28;20099;-71
2023/10/30 07:07:56;;;;;;;13.60;2.78;;;10.00;99.90;;;;;;5035075;28;20485;-71
2023/10/30 07:10:22;;;;;;;14.75;2.47;;;10.00;99.90;;;;;;5035214;28;20046;-71
2023/10/30 07:12:47;;;;;;;12.05;2.47;;;10.10;99.90;;;;;;5034811;28;20076;-71
2023/10/30 07:15:13;;;;;;;11.20;2.60;;;10.10;99.90;;;;;;5035190;28;20041;-71
2023/10/30 07:17:39;;;;;;;12.32;2.20;;;10.20;99.90;;;;;;5018353;28;20116;-71
2023/10/30 07:20:05;;;;;;;11.90;2.28;;;10.20;99.90;;;;;;5034790;28;20447;-72
2023/10/30 07:22:31;;;;;;;13.00;2.42;;;10.20;99.90;;;;;;5051312;28;20049;-71
2023/10/30 07:24:56;;;;;;;13.32;2.53;;;10.20;99.90;;;;;;5034558;28;20095;-71
2023/10/30 07:27:25;;;;;;;13.70;2.60;;;10.30;99.90;;;;;;5034556;28;20124;-73
2023/10/30 07:29:52;;;;;;;10.90;2.25;;;10.30;99.90;;;;;;5034786;28;20045;-72
2023/10/30 07:32:17;;;;;;;12.82;2.60;;;10.40;99.90;;;;;;5034676;28;20041;-74
2023/10/30 07:34:44;;;;;;;13.73;2.67;;;10.40;99.90;;;;;;5018063;28;20175;-74
2023/10/30 07:37:10;;;;;;;11.43;2.65;;;10.40;99.90;;;;;;5034601;28;20111;-74
2023/10/30 07:39:35;;;;;;;17.08;2.70;;;10.40;99.90;;;;;;5034373;28;20037;-74
2023/10/30 07:42:01;;;;;;;14.15;2.45;;;10.50;99.90;;;;;;5034535;28;20389;-73
2023/10/30 07:44:27;;;;;;;13.63;2.65;;;10.60;99.90;;;;;;5034589;28;20048;-73
2023/10/30 07:46:53;;;;;;;11.82;2.70;;;10.60;99.90;;;;;;5034270;28;20465;-73
2023/10/30 07:49:19;;;;;;;11.48;2.92;;;10.60;99.90;;;;;;5034653;28;20041;-73
2023/10/30 07:51:45;;;;;;;12.13;2.50;;;10.70;99.90;;;;;;5033802;28;20040;-73
2023/10/30 07:54:11;;;;;;;14.20;2.63;;;10.70;99.90;;;;;;5017643;28;20096;-73
2023/10/30 07:56:38;;;;;;;14.00;2.72;;;10.80;99.90;;;;;;5038363;28;20041;-73
2023/10/30 07:59:07;;;;;;;9.73;2.50;;;10.80;99.90;;;;;;5034270;28;20037;-73
2023/10/30 08:01:35;;;;;;;15.00;2.50;;;10.80;99.90;;;;;;5034072;28;20044;-73
2023/10/30 08:04:00;;;;;;;12.68;2.72;;;10.90;99.90;;;;;;5034234;28;20413;-72
2023/10/30 08:06:27;;;;;;;13.18;2.67;;;11.00;99.90;;;;;;5017382;28;20048;-73
2023/10/30 08:08:53;;;;;;;13.23;2.70;;;11.00;99.90;;;;;;5032931;28;20084;-73
2023/10/30 08:11:19;;;;;;;12.65;2.75;;;11.10;99.90;;;;;;5029833;28;20048;-73
2023/10/30 08:13:45;;;;;;;12.82;2.70;;;11.10;99.90;;;;;;5031524;28;20049;-73
2023/10/30 08:16:11;;;;;;;12.65;2.60;;;11.20;99.90;;;;;;5033865;28;20128;-73
2023/10/30 08:18:37;;;;;;;13.25;2.60;;;11.30;99.90;;;;;;5033970;28;20495;-73
2023/10/30 08:21:04;;;;;;;13.57;2.53;;;11.40;99.90;;;;;;5033595;28;20056;-73
2023/10/30 08:23:30;;;;;;;11.60;2.70;;;11.50;99.90;;;;;;5034036;28;20056;-73
2023/10/30 08:25:56;;;;;;;16.77;2.70;;;11.60;99.90;;;;;;5033616;28;20167;-73
2023/10/30 08:28:22;;;;;;;12.07;2.65;;;11.60;99.90;;;;;;5033671;28;20128;-73
2023/10/30 08:30:48;;;;;;;11.32;2.63;;;11.70;99.90;;;;;;5033917;28;20041;-73
2023/10/30 08:33:13;;;;;;;11.77;2.50;;;11.80;99.90;;;;;;5016886;28;20037;-73
2023/10/30 08:35:39;;;;;;;12.27;2.60;;;11.80;99.90;;;;;;5033522;28;20041;-73
2023/10/30 08:38:05;;;;;;;14.48;2.40;;;11.90;99.90;;;;;;5033516;28;20096;-73
2023/10/30 08:40:31;;;;;;;12.77;2.70;;;12.00;99.90;;;;;;5033723;28;20041;-73
2023/10/30 08:42:57;;;;;;;11.32;2.40;;;12.10;99.90;;;;;;5033259;28;20045;-73
2023/10/30 08:45:24;;;;;;;10.45;2.55;;;12.20;99.90;;;;;;5033075;28;20123;-73
2023/10/30 08:47:50;;;;;;;12.70;2.60;;;12.30;99.90;;;;;;5033375;28;20052;-73
2023/10/30 08:50:16;;;;;;;13.25;2.70;;;12.40;99.90;;;;;;5033104;28;20505;-73
2023/10/30 08:52:42;;;;;;;10.10;2.53;;;12.50;99.90;;;;;;5032905;28;20037;-74
2023/10/30 08:55:07;;;;;;;12.82;2.47;;;12.60;99.90;;;;;;5033021;28;20041;-73
2023/10/30 08:57:34;;;;;;;12.18;2.40;;;12.60;99.90;;;;;;5033128;28;20116;-73
2023/10/30 08:59:59;;;;;;;11.27;2.63;;;12.70;99.90;;;;;;5016453;28;20064;-73
2023/10/30 09:02:25;;;;;;;9.40;2.63;;;12.90;99.90;;;;;;5032883;28;20037;-73
2023/10/30 09:04:51;;;;;;;13.30;2.60;;;12.90;99.90;;;;;;5032098;28;20515;-72
2023/10/30 09:07:16;;;;;;;14.70;2.58;;;13.00;99.90;;;;;;5016437;28;20057;-72
2023/10/30 09:09:42;;;;;;;12.20;2.72;;;13.10;99.90;;;;;;5032740;28;20075;-72
2023/10/30 09:12:08;;;;;;;13.23;2.50;;;13.20;99.90;;;;;;5032429;28;20049;-73
2023/10/30 09:14:34;;;;;;;13.15;2.75;;;13.30;99.90;;;;;;5016207;28;20041;-72
2023/10/30 09:17:00;;;;;;;12.40;2.70;;;13.40;99.90;;;;;;5032856;28;20528;-72
2023/10/30 09:19:27;;;;;;;11.57;2.22;;;13.40;99.90;;;;;;5032503;28;20034;-72
2023/10/30 09:21:52;;;;;;;12.27;2.45;;;13.50;99.90;;;;;;5016057;28;20045;-73
2023/10/30 09:24:18;;;;;;;11.27;2.55;;;13.60;99.90;;;;;;5032693;28;20038;-72
2023/10/30 09:26:44;;;;;;;13.52;2.83;;;13.70;99.90;;;;;;5032654;28;20052;-74
2023/10/30 09:29:10;;;;;;;12.75;2.38;;;13.80;99.90;;;;;;5032709;28;20056;-73
2023/10/30 09:31:36;;;;;;;12.10;2.42;;;13.80;99.90;;;;;;5032371;28;20037;-72
2023/10/30 09:34:03;;;;;;;12.55;2.50;;;13.70;99.90;;;;;;5015831;28;20065;-72
2023/10/30 09:36:29;;;;;;;12.25;2.38;;;13.70;99.90;;;;;;5032226;28;20075;-73
2023/10/30 09:38:55;;;;;;;14.95;2.70;;;13.60;99.90;;;;;;5032545;28;20148;-72
2023/10/30 09:41:21;;;;;;;12.95;2.33;;;13.50;99.90;;;;;;5032338;28;20060;-73
2023/10/30 09:43:51;;;;;;;15.13;2.70;;;13.40;99.90;;;;;;5032182;28;20124;-73
2023/10/30 09:46:21;;;;;;;10.93;2.42;;;13.30;99.90;;;;;;5032464;28;20041;-72
2023/10/30 09:48:50;;;;;;;12.55;2.72;;;13.20;99.90;;;;;;5032500;28;20041;-73
2023/10/30 09:51:17;;;;;;;10.63;2.53;;;13.30;99.90;;;;;;5032333;28;20624;-73
2023/10/30 09:53:43;;;;;;;12.18;2.60;;;13.30;99.90;;;;;;5031947;28;20041;-73
2023/10/30 09:56:09;;;;;;;11.88;2.65;;;13.30;99.90;;;;;;5032020;28;20041;-73
2023/10/30 09:58:37;;;;;;;12.45;2.63;;;13.20;99.90;;;;;;5032043;28;20068;-73
2023/10/30 10:01:04;;;;;;;13.20;2.60;;;13.20;99.90;;;;;;5032164;28;20041;-73
2023/10/30 10:03:29;;;;;;;13.02;2.30;;;13.10;99.90;;;;;;5015536;28;20053;-72
2023/10/30 10:05:56;;;;;;;11.98;2.60;;;13.00;99.90;;;;;;5031944;28;20041;-74
2023/10/30 10:08:23;;;;;;;15.27;2.88;;;13.00;99.90;;;;;;5031952;28;20063;-73
2023/10/30 10:11:01;;;;;;;10.88;2.25;;;13.00;99.90;;;;;;5032058;28;20452;-73
2023/10/30 10:13:31;;;;;;;13.27;2.78;;;13.00;99.90;;;;;;5031932;28;20418;-73
2023/10/30 10:15:56;;;;;;;12.55;2.60;;;13.00;99.90;;;;;;5036997;28;20044;-73
2023/10/30 10:18:29;;;;;;;12.20;2.50;;;13.10;99.90;;;;;;5038616;28;20431;-73
2023/10/30 10:20:59;;;;;;;12.70;2.65;;;13.10;99.90;;;;;;5038253;28;20080;-73
2023/10/30 10:23:33;;;;;;;12.02;2.50;;;13.20;99.90;;;;;;5038747;28;20528;-73
2023/10/30 10:26:03;;;;;;;11.55;2.25;;;13.30;99.90;;;;;;5038340;28;20141;-73
2023/10/30 10:28:30;;;;;;;12.60;2.58;;;13.30;99.90;;;;;;5038243;28;20049;-73
2023/10/30 10:30:56;;;;;;;12.50;2.55;;;13.40;99.90;;;;;;5038320;28;20042;-73
2023/10/30 10:33:24;;;;;;;11.38;2.60;;;13.60;99.90;;;;;;5038287;28;20095;-73
2023/10/30 10:35:55;;;;;;;15.30;2.80;;;13.60;99.90;;;;;;5038378;28;20096;-73
2023/10/30 10:38:21;;;;;;;13.18;2.78;;;13.70;99.90;;;;;;5038203;28;20048;-73
2023/10/30 10:40:48;;;;;;;12.73;2.78;;;13.70;99.90;;;;;;5021736;28;20038;-73
2023/10/30 10:43:21;;;;;;;13.82;2.80;;;13.70;99.90;;;;;;5038324;28;20045;-73
2023/10/30 10:45:48;;;;;;;11.68;2.60;;;13.70;99.90;;;;;;5038542;28;20045;-74
2023/10/30 10:48:16;;;;;;;12.80;2.83;;;13.70;99.90;;;;;;5021675;28;20045;-73
2023/10/30 10:50:42;;;;;;;10.02;2.42;;;13.70;99.90;;;;;;5038187;28;20128;-73
2023/10/30 10:53:10;;;;;;;12.55;2.63;;;13.80;99.90;;;;;;5038129;28;20046;-74
2023/10/30 10:55:49;;;;;;;11.90;2.72;;;13.90;99.90;;;;;;5038301;28;20486;-73
2023/10/30 10:58:45;;;;;;;12.00;2.60;;;13.90;99.90;;;;;;5038067;28;20090;-75
2023/10/30 11:01:17;;;;;;;14.30;2.70;;;13.90;99.90;;;;;;5025268;28;20413;-73
2023/10/30 11:03:44;;;;;;;12.63;2.40;;;13.80;99.90;;;;;;5037923;28;20052;-74
2023/10/30 11:06:11;;;;;;;11.10;2.50;;;13.80;99.90;;;;;;5037966;28;20052;-73
2023/10/30 11:08:59;;;;;;;14.25;2.60;;;13.80;99.90;;;;;;5021421;28;20050;-74
2023/10/30 11:11:54;;;;;;;13.95;2.50;;;13.80;99.90;;;;;;5038125;28;20076;-73
2023/10/30 11:14:26;;;;;;;13.82;2.42;;;13.90;99.90;;;;;;5010316;28;20057;-73
2023/10/30 11:17:05;;;;;;;10.68;2.30;;;13.90;99.90;;;;;;5037878;28;20053;-73
2023/10/30 11:19:37;;;;;;;13.52;2.70;;;13.90;99.90;;;;;;5038437;28;20041;-69
2023/10/30 11:22:03;;;;;;;10.88;2.42;;;13.80;99.90;;;;;;5037686;28;20056;-69
2023/10/30 11:24:40;;;;;;;13.45;2.53;;;13.90;99.90;;;;;;5037809;28;20068;-69
2023/10/30 11:27:28;;;;;;;11.82;2.45;;;13.90;99.90;;;;;;5035029;28;20048;-69
2023/10/30 11:29:55;;;;;;;11.88;2.30;;;13.90;99.90;;;;;;5034629;28;20049;-69
2023/10/30 11:32:24;;;;;;;12.93;2.47;;;13.90;99.90;;;;;;5034938;28;20481;-69
2023/10/30 11:34:50;;;;;;;11.45;2.33;;;13.90;99.90;;;;;;5034502;28;20037;-69
2023/10/30 11:37:19;;;;;;;12.93;2.60;;;13.80;99.90;;;;;;5034753;28;20456;-69
2023/10/30 11:39:48;;;;;;;12.48;2.30;;;13.80;99.90;;;;;;5034429;28;20049;-69
2023/10/30 11:42:24;;;;;;;10.50;2.20;;;13.80;99.90;;;;;;5018001;28;20037;-69
2023/10/30 11:44:50;;;;;;;13.82;2.70;;;13.80;99.90;;;;;;5034356;28;20080;-70
2023/10/30 11:47:19;;;;;;;14.07;2.85;;;13.80;99.90;;;;;;5034327;28;20049;-69
2023/10/30 11:49:45;;;;;;;10.50;2.42;;;13.90;99.90;;;;;;5034437;28;20071;-69
2023/10/30 11:52:13;;;;;;;10.60;2.33;;;13.90;99.90;;;;;;5034407;28;20049;-69
2023/10/30 11:54:48;;;;;;;13.70;2.53;;;14.00;99.90;;;;;;5034179;28;20147;-69
2023/10/30 11:57:15;;;;;;;12.90;2.60;;;14.20;99.90;;;;;;5034139;28;20045;-69
2023/10/30 11:59:41;;;;;;;10.85;2.50;;;14.30;99.90;;;;;;5034125;28;20044;-70
2023/10/30 12:02:07;;;;;;;11.10;2.30;;;14.30;99.90;;;;;;5033963;28;20042;-69
2023/10/30 12:04:33;;;;;;;12.38;2.70;;;14.30;99.90;;;;;;5034312;28;20508;-69
2023/10/30 12:06:59;;;;;;;11.25;2.38;;;14.30;99.90;;;;;;5034169;28;20445;-69
2023/10/30 12:09:27;;;;;;;11.60;2.50;;;14.30;99.90;;;;;;5033903;28;20041;-69
2023/10/30 12:11:55;;;;;;;12.23;2.40;;;14.30;99.90;;;;;;5033935;28;20041;-69
2023/10/30 12:14:21;;;;;;;14.00;2.38;;;14.30;99.90;;;;;;5033774;28;20052;-70
2023/10/30 12:16:52;;;;;;;9.70;2.13;;;14.30;99.90;;;;;;5033812;28;20038;-69
2023/10/30 12:19:22;;;;;;;13.75;2.60;;;14.20;99.90;;;;;;5033949;28;20044;-69
2023/10/30 12:21:48;;;;;;;13.40;2.30;;;14.30;99.90;;;;;;5017219;28;20041;-69
2023/10/30 12:24:17;;;;;;;10.63;2.30;;;14.40;99.90;;;;;;5033906;28;20053;-70
2023/10/30 12:26:44;;;;;;;12.18;2.30;;;14.40;99.90;;;;;;5033808;28;20397;-70
2023/10/30 12:29:10;;;;;;;11.13;2.35;;;14.40;99.90;;;;;;5033551;28;20048;-69
2023/10/30 12:31:35;;;;;;;14.48;2.53;;;14.40;99.90;;;;;;5033692;28;20128;-70
2023/10/30 12:34:09;;;;;;;13.52;2.55;;;14.40;99.90;;;;;;5016838;28;20045;-70
2023/10/30 12:36:35;;;;;;;10.95;2.40;;;14.50;99.90;;;;;;5033516;28;20037;-70
2023/10/30 12:39:24;;;;;;;11.77;2.40;;;14.60;99.90;;;;;;5033684;28;20040;-74
2023/10/30 12:41:55;;;;;;;12.23;2.40;;;14.60;99.90;;;;;;5033614;28;20124;-74